Time;durP1;ratioP1;P1;durP2;ratioP2;P2;SDS_P1;SDS_P2;PMS_P1;PMS_P2;Temp;Humidity;BMP_temperature;BMP_pressure;BME280_temperature;BME280_humidity;BME280_pressure;Samples;Min_cycle;Max_cycle;Signal;HPM_P1;HPM_P2
2022/04/08 00:01:44;;;;;;;3.30;1.27;;;9.10;99.90;;;;;;5103969;28;20692;-73
2022/04/08 00:04:11;;;;;;;5.37;1.50;;;9.10;99.90;;;;;;5088637;28;20198;-71
2022/04/08 00:06:37;;;;;;;7.80;1.53;;;9.10;99.90;;;;;;5096225;28;20617;-73
2022/04/08 00:09:04;;;;;;;5.43;1.20;;;9.10;99.90;;;;;;5080074;28;20212;-74
2022/04/08 00:11:31;;;;;;;9.07;1.53;;;9.20;99.90;;;;;;5088770;28;20194;-73
2022/04/08 00:13:57;;;;;;;3.60;1.20;;;9.10;99.90;;;;;;5086272;28;20536;-73
2022/04/08 00:16:24;;;;;;;4.87;1.40;;;9.10;99.90;;;;;;5086576;28;20274;-72
2022/04/08 00:18:51;;;;;;;7.43;1.40;;;9.20;99.90;;;;;;5103776;28;20215;-72
2022/04/08 00:21:18;;;;;;;4.90;1.57;;;9.20;99.90;;;;;;5097897;28;20220;-73
2022/04/08 00:23:45;;;;;;;2.43;1.27;;;9.10;99.90;;;;;;5103021;28;20201;-73
2022/04/08 00:26:12;;;;;;;5.07;1.13;;;9.10;99.90;;;;;;5095633;28;20216;-71
2022/04/08 00:28:38;;;;;;;2.97;1.10;;;9.10;99.90;;;;;;5101746;28;20190;-73
2022/04/08 00:31:05;;;;;;;7.23;1.30;;;9.00;99.90;;;;;;5095325;28;20196;-71
2022/04/08 00:33:34;;;;;;;4.53;1.57;;;9.10;99.90;;;;;;5093038;28;20265;-75
2022/04/08 00:36:01;;;;;;;4.17;1.20;;;9.10;99.90;;;;;;5087397;28;20219;-73
2022/04/08 00:38:28;;;;;;;5.07;1.30;;;9.00;99.90;;;;;;5081500;28;20204;-73
2022/04/08 00:40:55;;;;;;;5.80;1.47;;;9.00;99.90;;;;;;5097738;28;20212;-73
2022/04/08 00:43:35;;;;;;;6.90;1.63;;;9.00;99.90;;;;;;5092220;28;20687;-71
2022/04/08 00:46:03;;;;;;;3.10;1.10;;;9.00;99.90;;;;;;5091874;28;20267;-71
2022/04/08 00:48:31;;;;;;;6.30;1.43;;;9.00;99.90;;;;;;5096045;28;20197;-75
2022/04/08 00:50:59;;;;;;;4.93;1.40;;;8.90;99.90;;;;;;5080710;28;20192;-73
2022/04/08 00:53:27;;;;;;;6.87;1.30;;;8.90;99.90;;;;;;5089776;28;20216;-72
2022/04/08 00:55:54;;;;;;;6.07;1.30;;;9.00;99.90;;;;;;5092063;28;20228;-72
2022/04/08 00:58:21;;;;;;;4.77;1.17;;;8.90;99.90;;;;;;5092326;28;20192;-73
2022/04/08 01:00:47;;;;;;;7.13;1.53;;;8.90;99.90;;;;;;5096556;28;20257;-73
2022/04/08 01:03:14;;;;;;;4.37;1.20;;;8.80;99.90;;;;;;5090488;28;20748;-71
2022/04/08 01:05:41;;;;;;;6.27;1.73;;;8.90;99.90;;;;;;5080549;28;20591;-71
2022/04/08 01:08:14;;;;;;;6.37;1.27;;;8.90;99.90;;;;;;5077506;28;20207;-71
2022/04/08 01:10:42;;;;;;;3.43;1.40;;;8.80;99.90;;;;;;5078071;28;20660;-71
2022/04/08 01:13:09;;;;;;;6.30;1.50;;;8.80;99.90;;;;;;5082868;28;20268;-73
2022/04/08 01:15:35;;;;;;;5.97;1.63;;;8.90;99.90;;;;;;5100275;28;20247;-73
2022/04/08 01:18:05;;;;;;;4.20;1.73;;;8.90;99.90;;;;;;5091718;28;20272;-72
2022/04/08 01:20:33;;;;;;;7.63;1.57;;;8.90;99.90;;;;;;5093254;28;20196;-73
2022/04/08 01:23:00;;;;;;;7.53;1.70;;;9.00;99.90;;;;;;5080169;28;20237;-75
2022/04/08 01:25:27;;;;;;;6.53;1.47;;;8.90;99.90;;;;;;5075927;28;20219;-73
2022/04/08 01:27:53;;;;;;;4.83;1.37;;;8.90;99.90;;;;;;5090525;28;20197;-73
2022/04/08 01:30:20;;;;;;;8.80;1.37;;;9.00;99.90;;;;;;5093822;28;20191;-73
2022/04/08 01:32:47;;;;;;;6.73;1.13;;;8.90;99.90;;;;;;5094608;28;20203;-73
2022/04/08 01:35:14;;;;;;;7.57;1.63;;;8.90;99.90;;;;;;5098234;28;20200;-71
2022/04/08 01:37:41;;;;;;;6.73;1.63;;;8.90;99.90;;;;;;5094970;28;20224;-74
2022/04/08 01:40:08;;;;;;;3.67;1.37;;;9.00;99.90;;;;;;5091771;28;20203;-72
2022/04/08 01:42:35;;;;;;;4.03;1.70;;;9.00;99.90;;;;;;5091301;28;20221;-72
2022/04/08 01:45:02;;;;;;;5.90;1.40;;;9.10;99.90;;;;;;5095335;28;20205;-74
2022/04/08 01:47:28;;;;;;;9.03;1.70;;;9.10;99.90;;;;;;5090776;28;20207;-73
2022/04/08 01:49:55;;;;;;;4.80;1.63;;;9.20;99.90;;;;;;5095008;28;20196;-72
2022/04/08 01:52:22;;;;;;;8.37;2.03;;;9.10;99.90;;;;;;5093634;28;20198;-71
2022/04/08 01:54:48;;;;;;;7.97;2.23;;;9.10;99.90;;;;;;5092407;28;20199;-71
2022/04/08 01:57:18;;;;;;;5.80;1.43;;;9.20;99.90;;;;;;5095790;28;20213;-73
2022/04/08 01:59:44;;;;;;;7.07;1.93;;;9.10;99.90;;;;;;5082054;28;20202;-73
2022/04/08 02:02:11;;;;;;;5.73;1.53;;;9.10;99.90;;;;;;5084216;28;20215;-74
2022/04/08 02:04:38;;;;;;;7.60;1.70;;;9.20;99.90;;;;;;5099228;28;20195;-72
2022/04/08 02:07:06;;;;;;;3.33;1.30;;;9.10;99.90;;;;;;5092869;28;20230;-71
2022/04/08 02:09:33;;;;;;;4.57;1.30;;;9.10;99.90;;;;;;5093869;28;20196;-73
2022/04/08 02:12:00;;;;;;;7.70;1.60;;;9.20;99.90;;;;;;5096109;28;20204;-73
2022/04/08 02:14:27;;;;;;;8.60;1.60;;;9.30;99.90;;;;;;5090447;28;20201;-73
2022/04/08 02:16:54;;;;;;;4.30;1.20;;;9.20;99.90;;;;;;5097487;28;20309;-72
2022/04/08 02:19:20;;;;;;;7.13;1.43;;;9.20;99.90;;;;;;5094251;28;20554;-72
2022/04/08 02:21:48;;;;;;;8.27;2.47;;;9.20;99.90;;;;;;5086289;28;20727;-73
2022/04/08 02:24:15;;;;;;;5.97;1.43;;;9.20;99.90;;;;;;5097767;28;20224;-73
2022/04/08 02:26:42;;;;;;;5.17;2.17;;;9.20;99.90;;;;;;5092813;28;20347;-73
2022/04/08 02:29:10;;;;;;;4.97;1.40;;;9.30;99.90;;;;;;5097936;28;20194;-74
2022/04/08 02:31:36;;;;;;;2.90;1.10;;;9.00;99.90;;;;;;5074058;28;20208;-73
2022/04/08 02:34:03;;;;;;;7.03;1.47;;;8.70;99.90;;;;;;5099685;28;20300;-74
2022/04/08 02:36:30;;;;;;;5.27;1.27;;;8.30;99.90;;;;;;5086099;28;20209;-72
2022/04/08 02:38:56;;;;;;;3.33;1.10;;;8.10;99.90;;;;;;5090089;28;20205;-75
2022/04/08 02:41:23;;;;;;;2.47;1.00;;;8.00;99.90;;;;;;5090130;28;20193;-74
2022/04/08 02:43:49;;;;;;;3.63;1.10;;;7.80;99.90;;;;;;5089931;28;20210;-74
2022/04/08 02:46:16;;;;;;;1.77;1.07;;;7.70;99.90;;;;;;5097748;28;20210;-74
2022/04/08 02:48:43;;;;;;;2.40;1.10;;;7.50;99.90;;;;;;5090499;28;20568;-74
2022/04/08 02:51:10;;;;;;;4.40;1.03;;;7.40;99.90;;;;;;5099449;28;20193;-74
2022/04/08 02:53:36;;;;;;;2.97;1.10;;;7.40;99.90;;;;;;5095505;28;20202;-73
2022/04/08 02:56:03;;;;;;;2.70;1.10;;;7.40;99.90;;;;;;5095306;28;20209;-74
2022/04/08 02:58:30;;;;;;;1.37;0.90;;;7.30;99.90;;;;;;5083068;28;20198;-74
2022/04/08 03:01:00;;;;;;;2.33;0.93;;;7.30;99.90;;;;;;5095076;28;20250;-73
2022/04/08 03:03:27;;;;;;;0.97;0.90;;;7.30;99.90;;;;;;5104799;28;20217;-74
2022/04/08 03:05:55;;;;;;;2.67;1.00;;;7.30;99.90;;;;;;5089498;28;20247;-73
2022/04/08 03:08:22;;;;;;;2.53;1.13;;;7.30;99.90;;;;;;5086183;28;20202;-72
2022/04/08 03:10:49;;;;;;;1.60;1.10;;;7.10;99.90;;;;;;5093989;28;20190;-72
2022/04/08 03:13:16;;;;;;;1.07;0.97;;;7.10;99.90;;;;;;5095446;28;20200;-73
2022/04/08 03:15:42;;;;;;;1.23;1.00;;;7.20;99.90;;;;;;5094516;28;20304;-73
2022/04/08 03:18:09;;;;;;;0.80;0.80;;;7.10;99.90;;;;;;5090095;28;20200;-72
2022/04/08 03:20:36;;;;;;;1.07;0.90;;;7.10;99.90;;;;;;5073938;28;20221;-72
2022/04/08 03:23:03;;;;;;;1.53;0.90;;;7.10;99.90;;;;;;5092569;28;20269;-74
2022/04/08 03:25:29;;;;;;;1.93;1.03;;;6.90;99.90;;;;;;5102481;28;20615;-74
2022/04/08 03:27:56;;;;;;;2.47;0.80;;;6.90;99.90;;;;;;5095499;28;20203;-75
2022/04/08 03:30:24;;;;;;;1.60;1.00;;;6.90;99.90;;;;;;5090367;28;20625;-74
2022/04/08 03:32:51;;;;;;;1.23;1.00;;;6.90;99.90;;;;;;5097109;28;20267;-74
2022/04/08 03:35:17;;;;;;;2.17;1.20;;;6.80;99.90;;;;;;5096613;28;20201;-75
2022/04/08 03:37:44;;;;;;;1.70;1.10;;;6.80;99.90;;;;;;5099588;28;20194;-71
2022/04/08 03:40:11;;;;;;;5.27;1.00;;;6.70;99.90;;;;;;5096878;28;20682;-72
2022/04/08 03:42:38;;;;;;;1.97;1.00;;;6.80;99.90;;;;;;5087295;28;20214;-74
2022/04/08 03:45:05;;;;;;;1.03;0.93;;;6.70;99.90;;;;;;5095823;28;20200;-72
2022/04/08 03:47:32;;;;;;;3.00;1.10;;;6.70;99.90;;;;;;5086369;28;20194;-73
2022/04/08 03:49:58;;;;;;;2.43;1.27;;;6.70;99.90;;;;;;5092527;28;20198;-74
2022/04/08 03:52:29;;;;;;;2.47;1.20;;;6.70;99.90;;;;;;5099501;28;20251;-72
2022/04/08 03:54:56;;;;;;;2.57;1.13;;;6.70;99.90;;;;;;5101116;28;20668;-74
2022/04/08 03:57:22;;;;;;;4.93;1.10;;;6.70;99.90;;;;;;5092160;28;20223;-74
2022/04/08 03:59:49;;;;;;;2.13;1.00;;;6.70;99.90;;;;;;5095118;28;20194;-72
2022/04/08 04:02:16;;;;;;;2.47;0.97;;;6.80;99.90;;;;;;5080171;28;20695;-73
2022/04/08 04:04:43;;;;;;;1.20;0.97;;;6.80;99.90;;;;;;5095288;28;20471;-73
2022/04/08 04:07:09;;;;;;;1.70;1.00;;;6.80;99.90;;;;;;5098213;28;20719;-72
2022/04/08 04:09:36;;;;;;;2.50;1.20;;;6.70;99.90;;;;;;5098808;28;20197;-72
2022/04/08 04:12:03;;;;;;;2.53;1.13;;;6.70;99.90;;;;;;5092027;28;20603;-72
2022/04/08 04:14:30;;;;;;;2.17;1.23;;;6.70;99.90;;;;;;5097726;28;20185;-73
2022/04/08 04:16:56;;;;;;;1.80;1.17;;;6.70;99.90;;;;;;5098459;28;20884;-73
2022/04/08 04:19:23;;;;;;;3.77;1.40;;;6.80;99.90;;;;;;5090266;28;20189;-74
2022/04/08 04:21:50;;;;;;;3.27;1.10;;;6.90;99.90;;;;;;5095416;28;20601;-75
2022/04/08 04:24:17;;;;;;;2.17;1.10;;;6.80;99.90;;;;;;5097489;28;20261;-75
2022/04/08 04:26:44;;;;;;;1.53;1.07;;;6.70;99.90;;;;;;5099786;28;20259;-75
2022/04/08 04:29:12;;;;;;;2.57;1.30;;;6.60;99.90;;;;;;5094075;28;20197;-73
2022/04/08 04:31:39;;;;;;;3.60;1.27;;;6.50;99.90;;;;;;5093501;28;20197;-72
2022/04/08 04:34:06;;;;;;;1.30;1.07;;;6.50;99.90;;;;;;5098976;28;20204;-73
2022/04/08 04:36:33;;;;;;;2.20;1.40;;;6.40;99.90;;;;;;5085792;28;20256;-74
2022/04/08 04:38:59;;;;;;;2.10;1.07;;;6.40;99.90;;;;;;5096611;28;20574;-72
2022/04/08 04:41:26;;;;;;;1.53;1.00;;;6.50;99.90;;;;;;5099538;28;20205;-75
2022/04/08 04:43:52;;;;;;;1.57;1.30;;;6.50;99.90;;;;;;5074403;28;20720;-73
2022/04/08 04:46:24;;;;;;;153.23;12.90;;;6.60;99.90;;;;;;5088916;28;20288;-71
2022/04/08 04:48:51;;;;;;;71.97;7.90;;;6.80;99.90;;;;;;5097649;28;20591;-73
2022/04/08 04:51:17;;;;;;;18.70;2.87;;;7.00;99.90;;;;;;5074845;28;20191;-71
2022/04/08 04:53:44;;;;;;;5.80;1.30;;;7.30;99.90;;;;;;5102228;28;20201;-73
2022/04/08 04:56:10;;;;;;;3.40;1.47;;;7.40;99.90;;;;;;5092283;28;20225;-74
2022/04/08 04:58:37;;;;;;;11.20;1.67;;;7.30;99.90;;;;;;5097275;28;20574;-73
2022/04/08 05:01:04;;;;;;;2.97;1.10;;;7.30;99.90;;;;;;5100693;28;20195;-74
2022/04/08 05:03:34;;;;;;;2.63;1.13;;;7.50;99.90;;;;;;5072173;28;20286;-73
2022/04/08 05:06:01;;;;;;;2.50;1.23;;;7.60;99.90;;;;;;5081674;28;20222;-73
2022/04/08 05:08:28;;;;;;;1.87;1.07;;;7.40;99.90;;;;;;5095811;28;20230;-71
2022/04/08 05:10:55;;;;;;;4.93;1.03;;;7.50;99.90;;;;;;5096455;28;20666;-71
2022/04/08 05:13:21;;;;;;;4.40;1.33;;;7.50;99.90;;;;;;5099105;28;20197;-73
2022/04/08 05:15:51;;;;;;;2.43;0.93;;;7.50;99.90;;;;;;5073680;28;20588;-73
2022/04/08 05:18:18;;;;;;;6.03;1.00;;;7.40;99.90;;;;;;5099482;28;20209;-71
2022/04/08 05:20:44;;;;;;;3.47;1.33;;;7.60;99.90;;;;;;5093569;28;20198;-73
2022/04/08 05:23:11;;;;;;;1.43;1.10;;;7.50;99.90;;;;;;5091475;28;20263;-72
2022/04/08 05:25:37;;;;;;;1.67;1.10;;;7.50;99.90;;;;;;5089789;28;20251;-71
2022/04/08 05:28:05;;;;;;;2.50;1.30;;;7.50;99.90;;;;;;5095788;28;20186;-72
2022/04/08 05:30:32;;;;;;;1.37;0.97;;;7.50;99.90;;;;;;5074398;28;20191;-70
2022/04/08 05:32:58;;;;;;;3.10;1.47;;;7.50;99.90;;;;;;5085868;28;20676;-71
2022/04/08 05:35:25;;;;;;;2.13;1.10;;;7.60;99.90;;;;;;5087490;28;20576;-69
2022/04/08 05:37:52;;;;;;;4.03;1.30;;;7.60;99.90;;;;;;5091045;28;20214;-74
2022/04/08 05:40:21;;;;;;;4.67;1.00;;;7.60;99.90;;;;;;5086631;28;20276;-73
2022/04/08 05:42:49;;;;;;;1.83;1.00;;;7.60;99.90;;;;;;5095228;28;20232;-72
2022/04/08 05:45:18;;;;;;;3.17;1.23;;;7.70;99.90;;;;;;5087946;28;20607;-72
2022/04/08 05:47:49;;;;;;;2.17;1.10;;;7.90;99.90;;;;;;5084002;28;20199;-72
2022/04/08 05:50:17;;;;;;;4.10;1.27;;;8.10;99.90;;;;;;5088795;28;20192;-72
2022/04/08 05:52:45;;;;;;;2.27;1.30;;;8.30;99.90;;;;;;5066486;28;20197;-72
2022/04/08 05:55:11;;;;;;;4.13;1.10;;;8.40;99.90;;;;;;5087589;28;20223;-71
2022/04/08 05:57:41;;;;;;;2.67;1.13;;;8.60;99.90;;;;;;5091090;28;20205;-71
2022/04/08 06:00:10;;;;;;;2.20;0.90;;;8.70;99.90;;;;;;5088482;28;20203;-71
2022/04/08 06:02:38;;;;;;;3.53;1.30;;;8.80;99.90;;;;;;5091102;28;20201;-72
2022/04/08 06:05:06;;;;;;;3.33;1.20;;;8.90;99.90;;;;;;5095376;28;20197;-72
2022/04/08 06:07:33;;;;;;;3.20;1.23;;;9.00;99.90;;;;;;5087934;28;20678;-72
2022/04/08 06:10:01;;;;;;;7.43;1.20;;;9.10;99.90;;;;;;5080312;28;20186;-74
2022/04/08 06:12:28;;;;;;;3.00;1.37;;;9.20;99.90;;;;;;5084888;28;20333;-74
2022/04/08 06:14:55;;;;;;;2.83;1.17;;;9.40;99.90;;;;;;5084836;28;20240;-75
2022/04/08 06:17:21;;;;;;;4.03;1.70;;;9.40;99.90;;;;;;5090428;28;20583;-74
2022/04/08 06:19:49;;;;;;;3.83;1.50;;;9.50;99.90;;;;;;5089336;28;20194;-74
2022/04/08 06:22:15;;;;;;;3.77;1.60;;;9.50;99.90;;;;;;5084943;28;20561;-76
2022/04/08 06:24:42;;;;;;;5.10;1.87;;;9.60;99.90;;;;;;5087385;28;20213;-73
2022/04/08 06:27:09;;;;;;;3.67;1.50;;;9.70;99.90;;;;;;5061083;28;20733;-71
2022/04/08 06:29:35;;;;;;;4.10;1.83;;;9.80;99.90;;;;;;5082451;28;20216;-76
2022/04/08 06:32:02;;;;;;;4.90;1.77;;;9.90;99.90;;;;;;5093944;28;20607;-74
2022/04/08 06:34:29;;;;;;;3.00;1.50;;;10.10;99.90;;;;;;5099652;28;20649;-75
2022/04/08 06:36:56;;;;;;;3.67;1.60;;;10.10;99.90;;;;;;5101419;28;20231;-78
2022/04/08 06:39:22;;;;;;;6.27;1.73;;;10.20;99.90;;;;;;5097119;28;20208;-76
2022/04/08 06:41:49;;;;;;;3.83;1.67;;;10.30;99.90;;;;;;5100263;28;20201;-75
2022/04/08 06:44:16;;;;;;;2.57;1.63;;;10.40;99.90;;;;;;5099112;28;20260;-76
2022/04/08 06:46:43;;;;;;;4.43;1.60;;;10.50;99.90;;;;;;5073907;28;20586;-76
2022/04/08 06:49:10;;;;;;;3.23;1.40;;;10.70;99.90;;;;;;5095268;28;20488;-75
2022/04/08 06:51:36;;;;;;;3.27;1.40;;;10.70;99.90;;;;;;5099829;28;20195;-76
2022/04/08 06:54:03;;;;;;;5.73;1.90;;;10.70;99.90;;;;;;5103465;28;20200;-76
2022/04/08 06:56:30;;;;;;;7.17;1.63;;;10.90;99.90;;;;;;5079520;28;20219;-75
2022/04/08 06:58:56;;;;;;;4.67;1.70;;;11.10;99.90;;;;;;5098832;28;20199;-75
2022/04/08 07:01:25;;;;;;;5.67;1.60;;;11.20;99.90;;;;;;5096451;28;20557;-73
2022/04/08 07:03:52;;;;;;;7.33;2.40;;;11.20;99.90;;;;;;5097373;28;20567;-75
2022/04/08 07:06:19;;;;;;;7.87;1.90;;;11.30;99.90;;;;;;5093760;28;20238;-78
2022/04/08 07:08:46;;;;;;;4.43;1.70;;;11.00;99.90;;;;;;5097155;28;20643;-75
2022/04/08 07:11:12;;;;;;;9.07;1.80;;;11.30;99.90;;;;;;5089199;28;20185;-75
2022/04/08 07:13:41;;;;;;;5.37;1.67;;;11.50;99.90;;;;;;5079928;28;20580;-78
2022/04/08 07:16:09;;;;;;;9.10;1.80;;;11.50;99.90;;;;;;5098357;28;20220;-76
2022/04/08 07:18:35;;;;;;;8.30;1.80;;;11.70;99.90;;;;;;5098572;28;20199;-80
2022/04/08 07:21:02;;;;;;;4.80;1.20;;;12.00;99.90;;;;;;5107464;28;20196;-75
2022/04/08 07:23:29;;;;;;;4.67;2.00;;;12.10;99.90;;;;;;5097772;28;20298;-75
2022/04/08 07:25:55;;;;;;;8.00;2.00;;;12.00;99.90;;;;;;5100529;28;20217;-78
2022/04/08 07:28:22;;;;;;;4.57;1.90;;;11.70;99.90;;;;;;5105859;28;20200;-77
2022/04/08 07:30:49;;;;;;;7.27;1.93;;;11.40;99.90;;;;;;5099733;28;20659;-75
2022/04/08 07:33:16;;;;;;;8.10;2.00;;;11.40;99.90;;;;;;5090548;28;20416;-78
2022/04/08 07:35:43;;;;;;;9.20;1.90;;;11.50;99.90;;;;;;5080610;28;20257;-76
2022/04/08 07:38:12;;;;;;;5.40;1.80;;;11.50;99.90;;;;;;5101307;28;20252;-76
2022/04/08 07:40:39;;;;;;;7.93;1.83;;;11.60;99.90;;;;;;5103811;28;20313;-76
2022/04/08 07:43:06;;;;;;;8.00;1.97;;;11.40;99.90;;;;;;5088631;28;20197;-78
2022/04/08 07:45:33;;;;;;;10.93;2.20;;;11.40;99.90;;;;;;5076734;28;20216;-75
2022/04/08 07:48:00;;;;;;;8.43;1.87;;;11.40;99.90;;;;;;5083157;28;20642;-78
2022/04/08 07:50:28;;;;;;;8.33;2.13;;;11.40;99.90;;;;;;5099289;28;20195;-75
2022/04/08 07:52:55;;;;;;;11.07;1.83;;;11.40;99.90;;;;;;5106514;28;20232;-75
2022/04/08 07:55:24;;;;;;;6.70;1.83;;;11.20;99.90;;;;;;5101420;28;20217;-76
2022/04/08 07:57:51;;;;;;;10.53;1.97;;;11.10;99.90;;;;;;5097953;28;20259;-75
2022/04/08 08:00:20;;;;;;;6.70;1.97;;;10.80;99.90;;;;;;5106767;28;20196;-74
2022/04/08 08:02:48;;;;;;;3.43;1.60;;;10.80;99.90;;;;;;5101427;28;20650;-76
2022/04/08 08:05:15;;;;;;;6.40;1.70;;;10.90;99.90;;;;;;5092622;28;20216;-76
2022/04/08 08:07:52;;;;;;;5.93;2.00;;;11.00;99.90;;;;;;5087903;28;20198;-76
2022/04/08 08:10:20;;;;;;;9.43;2.23;;;11.00;99.90;;;;;;5095017;28;20660;-75
2022/04/08 08:12:47;;;;;;;8.90;2.20;;;10.90;99.90;;;;;;5102186;28;20190;-75
2022/04/08 08:15:15;;;;;;;9.20;2.30;;;10.70;99.90;;;;;;5100754;28;20191;-75
2022/04/08 08:17:42;;;;;;;7.03;1.70;;;10.70;99.90;;;;;;5093294;28;20191;-76
2022/04/08 08:20:09;;;;;;;6.03;1.80;;;10.60;99.90;;;;;;5097965;28;20206;-76
2022/04/08 08:22:37;;;;;;;5.67;1.87;;;10.70;99.90;;;;;;5095599;28;20199;-75
2022/04/08 08:25:06;;;;;;;9.03;2.03;;;10.80;99.90;;;;;;5101275;28;20213;-76
2022/04/08 08:27:39;;;;;;;8.23;2.50;;;10.90;99.90;;;;;;5098736;28;20191;-75
2022/04/08 08:30:10;;;;;;;11.43;2.40;;;11.00;99.90;;;;;;5083895;28;20192;-79
2022/04/08 08:32:37;;;;;;;7.53;2.20;;;11.10;99.90;;;;;;5082370;28;20189;-72
2022/04/08 08:35:09;;;;;;;6.70;1.60;;;11.20;99.90;;;;;;5081995;28;20570;-74
2022/04/08 08:37:36;;;;;;;5.03;1.53;;;11.30;99.90;;;;;;5075771;28;20201;-69
2022/04/08 08:40:04;;;;;;;6.23;1.70;;;11.20;99.90;;;;;;5087589;28;20570;-70
2022/04/08 08:42:32;;;;;;;4.60;1.90;;;11.30;99.90;;;;;;5073074;28;20265;-69
2022/04/08 08:44:59;;;;;;;5.07;1.87;;;11.10;99.90;;;;;;5096915;28;20479;-71
2022/04/08 08:47:27;;;;;;;10.97;4.57;;;11.20;99.90;;;;;;5075608;28;20301;-68
2022/04/08 08:49:55;;;;;;;24.90;9.57;;;11.10;99.90;;;;;;5104896;28;20210;-74
2022/04/08 08:52:22;;;;;;;11.83;4.07;;;10.90;99.90;;;;;;5085300;28;20215;-72
2022/04/08 08:54:50;;;;;;;9.10;3.93;;;10.70;99.90;;;;;;5093728;28;20276;-72
2022/04/08 08:57:18;;;;;;;10.30;4.30;;;10.40;99.90;;;;;;5072073;28;20213;-72
2022/04/08 08:59:46;;;;;;;39.83;20.67;;;10.50;99.90;;;;;;5083005;28;20639;-72
2022/04/08 09:02:22;;;;;;;27.97;12.07;;;10.50;99.90;;;;;;5095449;28;20207;-73
2022/04/08 09:04:52;;;;;;;20.37;9.70;;;10.50;99.90;;;;;;5090157;28;20716;-74
2022/04/08 09:07:27;;;;;;;12.73;5.10;;;10.50;99.90;;;;;;5091136;28;20224;-70
2022/04/08 09:09:56;;;;;;;25.70;11.20;;;10.50;99.90;;;;;;5087595;28;20679;-73
2022/04/08 09:12:24;;;;;;;15.13;6.80;;;10.20;99.90;;;;;;5088818;28;20195;-74
2022/04/08 09:14:53;;;;;;;15.37;6.00;;;10.10;99.90;;;;;;5088375;28;20661;-74
2022/04/08 09:17:22;;;;;;;12.73;4.40;;;10.00;99.90;;;;;;5087744;28;20220;-72
2022/04/08 09:19:56;;;;;;;5.53;3.00;;;9.90;99.90;;;;;;5091238;28;20192;-74
2022/04/08 09:22:28;;;;;;;9.10;2.60;;;9.80;99.90;;;;;;5087879;28;20260;-74
2022/04/08 09:25:10;;;;;;;4.83;1.93;;;9.70;99.90;;;;;;5085176;28;20223;-73
2022/04/08 09:27:41;;;;;;;8.23;2.40;;;9.30;99.90;;;;;;5100681;28;20270;-73
2022/04/08 09:30:09;;;;;;;5.17;2.07;;;9.20;99.90;;;;;;5093086;28;20196;-75
2022/04/08 09:32:36;;;;;;;7.13;2.30;;;9.30;99.90;;;;;;5090410;28;20205;-74
2022/04/08 09:35:04;;;;;;;6.03;2.20;;;9.50;99.90;;;;;;5090637;28;20197;-73
2022/04/08 09:37:31;;;;;;;7.77;2.17;;;9.50;99.90;;;;;;5093199;28;20213;-74
2022/04/08 09:40:04;;;;;;;7.73;2.00;;;9.40;99.90;;;;;;5096244;28;20197;-73
2022/04/08 09:42:46;;;;;;;8.73;2.10;;;9.60;99.90;;;;;;5098535;28;20194;-72
2022/04/08 09:45:14;;;;;;;6.13;1.93;;;9.80;99.90;;;;;;5080289;28;20217;-73
2022/04/08 09:47:41;;;;;;;5.33;1.70;;;9.70;99.90;;;;;;5085065;28;20193;-73
2022/04/08 09:50:10;;;;;;;8.10;2.13;;;9.80;99.90;;;;;;5095681;28;20207;-75
2022/04/08 09:52:41;;;;;;;3.90;1.90;;;9.60;99.90;;;;;;5101405;28;20196;-72
2022/04/08 09:55:09;;;;;;;8.77;2.40;;;9.50;99.90;;;;;;5096205;28;20629;-71
2022/04/08 09:57:38;;;;;;;6.90;2.63;;;9.60;99.90;;;;;;5086509;28;20205;-73
2022/04/08 10:00:06;;;;;;;6.63;2.07;;;9.90;99.90;;;;;;5106358;28;20203;-73
2022/04/08 10:02:35;;;;;;;7.63;2.20;;;10.30;99.90;;;;;;5070062;28;20201;-73
2022/04/08 10:05:09;;;;;;;4.67;1.80;;;10.10;99.90;;;;;;5089389;28;20210;-72
2022/04/08 10:07:38;;;;;;;7.33;1.80;;;9.90;99.90;;;;;;5086027;28;20194;-73
2022/04/08 10:10:48;;;;;;;4.73;1.70;;;9.60;99.90;;;;;;5089783;28;20582;-75
2022/04/08 10:14:00;;;;;;;5.97;1.30;;;9.80;99.90;;;;;;5088426;28;20189;-74
2022/04/08 10:16:27;;;;;;;5.53;1.87;;;10.00;99.90;;;;;;5068706;28;20231;-76
2022/04/08 10:18:55;;;;;;;7.43;1.77;;;10.00;99.90;;;;;;5088682;28;20193;-74
2022/04/08 10:21:22;;;;;;;2.80;1.60;;;10.10;99.90;;;;;;5083741;28;20248;-73
2022/04/08 10:23:56;;;;;;;3.13;1.63;;;10.10;99.90;;;;;;5086287;28;20618;-76
2022/04/08 10:26:25;;;;;;;5.73;1.70;;;10.20;99.90;;;;;;5075397;28;20327;-77
2022/04/08 10:28:54;;;;;;;3.83;1.83;;;10.10;99.90;;;;;;5088495;28;20587;-74
2022/04/08 10:31:23;;;;;;;5.77;2.10;;;10.30;99.90;;;;;;5093244;28;20200;-73
2022/04/08 10:33:52;;;;;;;6.10;2.80;;;10.40;99.90;;;;;;5089257;28;20606;-77
2022/04/08 10:36:32;;;;;;;9.30;3.20;;;10.50;99.90;;;;;;5099507;28;20213;-74
2022/04/08 10:39:12;;;;;;;10.27;4.97;;;10.60;99.90;;;;;;5101894;28;20188;-78
2022/04/08 10:41:53;;;;;;;4.73;2.90;;;10.70;99.90;;;;;;5094548;28;20696;-73
2022/04/08 10:44:33;;;;;;;3.17;1.90;;;10.50;99.90;;;;;;5092985;28;20266;-74
2022/04/08 10:47:02;;;;;;;5.23;1.90;;;10.60;99.90;;;;;;5091478;28;20219;-75
2022/04/08 10:49:30;;;;;;;5.43;1.73;;;10.70;99.90;;;;;;5082266;28;20197;-74
2022/04/08 10:51:57;;;;;;;7.33;2.00;;;10.60;99.90;;;;;;5087672;28;20256;-74
2022/04/08 10:54:34;;;;;;;3.47;1.80;;;10.70;99.90;;;;;;5093223;28;20196;-72
2022/04/08 10:57:01;;;;;;;5.70;1.83;;;10.20;99.90;;;;;;5077247;28;20217;-71
2022/04/08 10:59:28;;;;;;;2.57;1.50;;;9.80;99.90;;;;;;5086566;28;20205;-71
2022/04/08 11:02:05;;;;;;;4.53;1.50;;;9.70;99.90;;;;;;5091404;28;20358;-72
2022/04/08 11:04:32;;;;;;;2.77;1.37;;;9.50;99.90;;;;;;5094493;28;20318;-71
2022/04/08 11:07:06;;;;;;;5.97;1.60;;;9.30;99.90;;;;;;5087616;28;20277;-71
2022/04/08 11:09:33;;;;;;;4.30;1.30;;;9.20;99.90;;;;;;5077441;28;20190;-73
2022/04/08 11:11:59;;;;;;;2.03;1.10;;;9.20;99.90;;;;;;5088027;28;20205;-72
2022/04/08 11:14:28;;;;;;;5.93;1.30;;;9.10;99.90;;;;;;5087537;28;20208;-72
2022/04/08 11:16:56;;;;;;;2.83;1.10;;;8.90;99.90;;;;;;5094176;28;20924;-73
2022/04/08 11:19:22;;;;;;;6.50;1.20;;;9.00;99.90;;;;;;5098787;28;20193;-71
2022/04/08 11:21:55;;;;;;;2.83;1.23;;;9.10;99.90;;;;;;5094198;28;20231;-73
2022/04/08 11:24:21;;;;;;;2.70;1.30;;;9.10;99.90;;;;;;5084602;28;20224;-71
2022/04/08 11:26:50;;;;;;;3.17;1.20;;;9.20;99.90;;;;;;5085032;28;20238;-72
2022/04/08 11:29:20;;;;;;;3.07;1.30;;;9.30;99.90;;;;;;5083887;28;20198;-74
2022/04/08 11:31:49;;;;;;;2.80;1.47;;;9.40;99.90;;;;;;5092597;28;20200;-72
2022/04/08 11:34:23;;;;;;;2.97;1.40;;;9.40;99.90;;;;;;5078381;28;20192;-73
2022/04/08 11:36:54;;;;;;;3.33;1.33;;;9.40;99.90;;;;;;5089901;28;20250;-73
2022/04/08 11:39:22;;;;;;;4.77;1.40;;;9.50;99.90;;;;;;5085284;28;20197;-72
2022/04/08 11:41:54;;;;;;;2.67;1.43;;;9.40;99.90;;;;;;5094482;28;20204;-74
2022/04/08 11:44:21;;;;;;;2.30;1.30;;;9.20;99.90;;;;;;5083072;28;20218;-73
2022/04/08 11:46:48;;;;;;;3.47;1.40;;;9.10;99.90;;;;;;5082625;28;20665;-72
2022/04/08 11:49:18;;;;;;;3.20;1.30;;;9.10;99.90;;;;;;5079807;28;20678;-72
2022/04/08 11:51:45;;;;;;;2.73;1.17;;;9.10;99.90;;;;;;5076432;28;20545;-74
2022/04/08 11:54:12;;;;;;;4.17;1.10;;;9.10;99.90;;;;;;5091713;28;20646;-73
2022/04/08 11:56:49;;;;;;;4.10;1.37;;;9.20;99.90;;;;;;5085723;28;20307;-73
2022/04/08 11:59:20;;;;;;;2.93;1.60;;;9.20;99.90;;;;;;5090668;28;20759;-71
2022/04/08 12:01:47;;;;;;;5.23;1.30;;;9.30;99.90;;;;;;5090733;28;20197;-72
2022/04/08 12:04:17;;;;;;;1.90;1.37;;;9.50;99.90;;;;;;5079688;28;20223;-72
2022/04/08 12:06:47;;;;;;;2.90;1.20;;;9.60;99.90;;;;;;5076362;28;20214;-74
2022/04/08 12:09:16;;;;;;;2.07;1.00;;;9.70;99.90;;;;;;5091525;28;20189;-73
2022/04/08 12:11:45;;;;;;;1.83;1.20;;;9.70;99.90;;;;;;5081374;28;20194;-72
2022/04/08 12:14:19;;;;;;;1.80;1.10;;;9.70;99.90;;;;;;5077946;28;20202;-73
2022/04/08 12:16:48;;;;;;;1.97;0.90;;;9.60;99.90;;;;;;5067118;28;20244;-75
2022/04/08 12:19:19;;;;;;;1.70;0.90;;;9.60;99.90;;;;;;5078174;28;20191;-72
2022/04/08 12:22:01;;;;;;;1.43;0.80;;;9.70;99.90;;;;;;5091633;28;20202;-73
2022/04/08 12:24:29;;;;;;;3.53;1.10;;;9.70;99.90;;;;;;5091411;28;20221;-73
2022/04/08 12:26:56;;;;;;;1.30;0.80;;;9.80;99.90;;;;;;5080671;28;20228;-72
2022/04/08 12:29:27;;;;;;;2.10;1.00;;;9.70;99.90;;;;;;5100295;28;20185;-73
2022/04/08 12:31:59;;;;;;;1.53;0.80;;;9.60;99.90;;;;;;5098036;28;20203;-73
2022/04/08 12:34:27;;;;;;;1.30;0.97;;;9.50;99.90;;;;;;5089490;28;20201;-74
2022/04/08 12:36:54;;;;;;;1.90;1.10;;;9.50;99.90;;;;;;5084377;28;20221;-71
2022/04/08 12:39:21;;;;;;;2.30;1.10;;;9.50;99.90;;;;;;5085177;28;20191;-72
2022/04/08 12:41:49;;;;;;;2.03;1.17;;;9.50;99.90;;;;;;5091068;28;20221;-72
2022/04/08 12:44:16;;;;;;;3.17;1.60;;;9.30;99.90;;;;;;5078025;28;20588;-73
2022/04/08 12:46:43;;;;;;;3.63;2.27;;;9.30;99.90;;;;;;5093101;28;20217;-73
2022/04/08 12:49:10;;;;;;;5.53;2.63;;;9.30;99.90;;;;;;5086587;28;20525;-73
2022/04/08 12:51:37;;;;;;;6.00;1.97;;;9.30;99.90;;;;;;5074108;28;20244;-72
2022/04/08 12:54:04;;;;;;;7.37;1.47;;;9.30;99.90;;;;;;5093256;28;20557;-74
2022/04/08 12:56:30;;;;;;;2.37;1.43;;;9.30;99.90;;;;;;5095447;28;20609;-73
2022/04/08 12:58:58;;;;;;;3.30;1.53;;;9.30;99.90;;;;;;5094765;28;20197;-72